Fairview, TX

5:09 PM CDT on April 25, 2015 (GMT -0500)
Collin County Regional | | Change Station
CLOSE
Current Station
Airport
Location: McKinney,
Elevation: 584 ft
Nearby Weather Stations

Elev 584 ft 33.18 °N, 96.59 °W | Updated 16 minutes ago

Clear
Clear
85 °F
Feels Like 85 °F
N
15
Wind Variable Wind from West
Gusts 23 mph

Today
High -- | Low -- °F
--% Chance of Precip.
Yesterday
High -- | Low -- °F
Precip. -- in
6:45 AM 8:04 PM
Waxing Crescent, 49% visible
Pressure 29.63 in
Visibility 10.0 miles
Clouds Clear
Dew Point 48 °F
Humidity 28%
Rainfall 0.00 in
Snow Depth Not available.
UV 5 out of 12
Pollen 9.10 out of 12
Air Quality Not available.
Flu Activity Local Activity
METAR KTKI 252153Z 27013G20KT 10SM CLR 29/09 A2964 RMK AO2 SLP033 T02940089

More Conditions Fewer Conditions

Pressure 29.63 in
Visibility 10.0 miles
Clouds Clear
Dew Point 48 °F
Humidity 28%
Rainfall 0.00 in
Snow Depth Not available.
UV 5 out of 12
Pollen 9.10 out of 12
Air Quality Not available.
Flu Activity Local Activity
METAR KTKI 252153Z 27013G20KT 10SM CLR 29/09 A2964 RMK AO2 SLP033 T02940089

More Conditions Fewer Conditions

10-Day Weather Forecast

Almanac

Astronomy

Apr. 25, 2015 Rise Set
Actual Time
Civil Twilight
Nautical Twilight
Astronomical Twilight
Moon
Length of Visible Light
Length of Day
Tomorrow will be .
, % of the Moon is Illuminated

Today's Extremes

State Highs State Lows

Community

WunderPhotos

Upload Photos

1,816,824 photos uploaded!

WunderBlogs® & News

Nearby

Air Quality

  Air Quality AQ Index Pollutant
Not available.

Snow Depth

Station Depth Elevation

Earthquake Activity

City Distance Mag. Time & Date
Minimum magnitude displayed is 2.5.

Coastal Water Temperatures

Place Temperature

Stations

Nearby Weather Stations

Station Location Temp. Windchill Dew Point Humidity Wind Precip. Elev Updated Type
                   
Flood Warning
Statement as of 3:41 PM CDT on April 25, 2015

The Flood Warning continues for
the East Fork Trinity River at McKinney.
* At 0230 PM Saturday the stage was 16.57 feet.
* Flood stage is 16 feet.
* Minor flooding is occurring and is forecast to end late Saturday
afternoon.
* Forecast... the river has crested and will continue to recede and
fall below flood stage by late Saturday afternoon.


Lat... Lon 3323 9667 3315 9661 3316 9649 3325 9654